»·PEaware :: UAL1702 KDEN-KJAC

UAL1702 :: KDEN-KJAC

FLIGHT INFORMATION

Flight Status: Arrived
Operator:
United Airlines
More flights by this operator :: More flights under this callsign
Pilot: Isaac R. (8401)
Aircraft: BOEING 737-900
(B739)
More flights by this aircraft type
Origin: KDEN Denver Intl
United States
Destination: KJAC Jackson Hole
United States
More flights between these airports :: More routes between these airports
Route: YAMMI4 LAR DNW
File this flight plan on PilotEdge
Remarks:
Altitude:
(Current/Filed)
36,000ft
Speed:
(Current/Filed)
440kts
Departed: 20-Sep-18 07:57 PM
Arrived: 20-Sep-18 09:02 PM
Distance/Time
Traveled:
352nm/1:04
Distance/Time
To Go:
Arrived

Flight Plot

Page will automatically refresh every two minutes.


Map Options




Map Legend


Flown Route
Filed Route
Departure Airport
Arrival Airport
Navaid (VOR, NDB)
Fix

Horizontal Profiles

Position Reports

Time Latitude Longitude Heading Altitude Ground
Speed
20-Sep-18 19:32 39.859428 -104.672875 180 5439ft 0kts
20-Sep-18 19:33 39.859428 -104.672875 180 5439ft 0kts
20-Sep-18 19:34 39.859428 -104.672875 180 5439ft 0kts
20-Sep-18 19:35 39.859428 -104.672875 180 5439ft 0kts
20-Sep-18 19:36 39.859428 -104.672875 180 5439ft 0kts
20-Sep-18 19:37 39.859428 -104.672875 180 5439ft 0kts
20-Sep-18 19:38 39.859428 -104.672875 180 5439ft 0kts
20-Sep-18 19:39 39.859428 -104.672875 180 5439ft 0kts
20-Sep-18 19:40 39.859428 -104.672875 180 5439ft 0kts
20-Sep-18 19:41 39.859428 -104.672875 180 5439ft 0kts
20-Sep-18 19:42 39.859428 -104.672875 180 5439ft 0kts
20-Sep-18 19:43 39.859428 -104.672875 180 5439ft 0kts
20-Sep-18 19:44 39.859428 -104.672875 180 5439ft 0kts
20-Sep-18 19:45 39.859428 -104.672875 180 5439ft 0kts
20-Sep-18 19:46 39.859428 -104.672875 180 5439ft 0kts
20-Sep-18 19:47 39.859819 -104.672815 201 5439ft 2kts
20-Sep-18 19:48 39.860059 -104.672376 270 5439ft 0kts
20-Sep-18 19:49 39.860059 -104.672376 270 5439ft 0kts
20-Sep-18 19:50 39.860059 -104.672376 270 5439ft 0kts
20-Sep-18 19:51 39.860059 -104.672376 270 5439ft 0kts
20-Sep-18 19:52 39.860059 -104.672376 270 5439ft 0kts
20-Sep-18 19:53 39.860066 -104.673097 270 5439ft 7kts
20-Sep-18 19:54 39.860092 -104.677517 270 5439ft 15kts
20-Sep-18 19:55 39.860754 -104.681318 273 5439ft 12kts
20-Sep-18 19:56 39.863403 -104.681948 0 5439ft 10kts
20-Sep-18 19:57 39.864329 -104.684896 270 5439ft 12kts
20-Sep-18 19:58 39.864558 -104.687181 0 5439ft 1kts
20-Sep-18 19:59 39.890142 -104.687016 0 5875ft 165kts
20-Sep-18 20:00 39.942530 -104.697476 346 8026ft 230kts
20-Sep-18 20:01 40.010915 -104.719470 345 10009ft 268kts
20-Sep-18 20:02 40.094533 -104.752865 337 11245ft 343kts
20-Sep-18 20:03 40.186027 -104.796765 337 13282ft 349kts
20-Sep-18 20:04 40.278331 -104.839768 335 16770ft 358kts
20-Sep-18 20:05 40.373588 -104.884128 335 19876ft 369kts
20-Sep-18 20:06 40.471582 -104.929965 334 22530ft 379kts
20-Sep-18 20:07 40.572545 -104.977389 333 24674ft 391kts
20-Sep-18 20:08 40.677440 -105.026693 333 26242ft 409kts
20-Sep-18 20:09 40.780911 -105.089857 317 27685ft 409kts
20-Sep-18 20:10 40.869437 -105.186378 313 29030ft 416kts
20-Sep-18 20:11 40.958198 -105.286947 312 30201ft 425kts
20-Sep-18 20:12 41.048351 -105.389413 312 31509ft 427kts
20-Sep-18 20:13 41.138445 -105.491622 311 32737ft 427kts
20-Sep-18 20:14 41.228112 -105.594405 311 33843ft 426kts
20-Sep-18 20:15 41.317601 -105.697626 310 34921ft 423kts
20-Sep-18 20:16 41.392056 -105.814441 300 35884ft 411kts
20-Sep-18 20:17 41.462083 -105.935697 300 36242ft 415kts
20-Sep-18 20:18 41.531698 -106.056940 300 36245ft 407kts
20-Sep-18 20:19 41.600865 -106.176744 300 36245ft 408kts
20-Sep-18 20:20 41.669690 -106.296642 300 36243ft 407kts
20-Sep-18 20:21 41.738505 -106.417177 300 36260ft 406kts
20-Sep-18 20:22 41.806819 -106.537424 300 36260ft 405kts
20-Sep-18 20:23 41.875162 -106.658242 300 36264ft 405kts
20-Sep-18 20:24 41.942956 -106.778582 301 36264ft 403kts
20-Sep-18 20:25 42.010368 -106.898743 301 36268ft 400kts
20-Sep-18 20:26 42.076877 -107.017754 301 36268ft 395kts
20-Sep-18 20:27 42.142640 -107.135874 302 36274ft 394kts
20-Sep-18 20:28 42.207986 -107.253714 302 36266ft 392kts
20-Sep-18 20:29 42.273115 -107.371628 302 36261ft 391kts
20-Sep-18 20:30 42.337747 -107.489102 302 36259ft 389kts
20-Sep-18 20:31 42.402048 -107.606433 302 36255ft 388kts
20-Sep-18 20:32 42.466299 -107.724132 302 36251ft 387kts
20-Sep-18 20:33 42.530136 -107.841532 302 36247ft 387kts
20-Sep-18 20:34 42.594065 -107.959566 302 36241ft 387kts
20-Sep-18 20:35 42.657317 -108.076833 302 36234ft 383kts
20-Sep-18 20:36 42.720253 -108.193947 302 36229ft 384kts
20-Sep-18 20:37 42.772697 -108.292114 302 36226ft 383kts
20-Sep-18 20:38 42.845335 -108.428835 302 36225ft 382kts
20-Sep-18 20:39 42.897062 -108.526579 302 36225ft 382kts
20-Sep-18 20:40 42.969891 -108.663335 302 36225ft 381kts
20-Sep-18 20:41 43.021420 -108.760906 302 36228ft 380kts
20-Sep-18 20:42 43.092088 -108.895435 302 33800ft 366kts
20-Sep-18 20:43 43.141394 -108.989706 302 31859ft 374kts
20-Sep-18 20:44 43.203647 -109.108577 303 29921ft 391kts
20-Sep-18 20:45 43.266045 -109.228980 302 28116ft 381kts
20-Sep-18 20:46 43.326493 -109.346286 302 26401ft 371kts
20-Sep-18 20:47 43.385008 -109.459530 302 25365ft 349kts
20-Sep-18 20:48 43.440050 -109.567487 302 22912ft 339kts
20-Sep-18 20:49 43.493419 -109.672417 302 20844ft 325kts
20-Sep-18 20:50 43.545747 -109.775667 303 19554ft 325kts
20-Sep-18 20:51 43.597613 -109.876915 303 18313ft 319kts
20-Sep-18 20:52 43.648499 -109.977252 303 16786ft 317kts
20-Sep-18 20:53 43.699176 -110.077081 303 15555ft 318kts
20-Sep-18 20:54 43.749564 -110.177520 302 14323ft 316kts
20-Sep-18 20:55 43.795456 -110.269526 302 13990ft 258kts
20-Sep-18 20:56 43.819516 -110.349343 262 13315ft 222kts
20-Sep-18 20:57 43.801038 -110.431549 250 11952ft 222kts
20-Sep-18 20:58 43.779251 -110.509635 249 10960ft 201kts
20-Sep-18 20:59 43.759380 -110.579780 248 9881ft 184kts
20-Sep-18 21:00 43.741007 -110.644396 248 8872ft 179kts
20-Sep-18 21:01 43.706089 -110.688709 204 8348ft 178kts
20-Sep-18 21:02 43.661296 -110.711837 197 7528ft 164kts
20-Sep-18 21:03 43.618261 -110.732422 198 6536ft 151kts
20-Sep-18 21:04 43.599986 -110.741307 184 6459ft 9kts
20-Sep-18 21:05 43.600672 -110.739394 19 6459ft 9kts
20-Sep-18 21:06 43.602976 -110.738287 18 6459ft 2kts
20-Sep-18 21:07 43.603102 -110.737298 108 6459ft 1kts
20-Sep-18 21:08 43.603101 -110.737295 108 6459ft 0kts
20-Sep-18 21:09 43.603101 -110.737295 108 6459ft 0kts
20-Sep-18 21:10 43.603101 -110.737295 108 6459ft 0kts
20-Sep-18 21:11 43.603101 -110.737295 108 6459ft 0kts

Navigation Log

Ident Type
Flight plan parsing failed, navigation log unavailable